Time;durP1;ratioP1;P1;durP2;ratioP2;P2;SDS_P1;SDS_P2;PMS_P1;PMS_P2;Temp;Humidity;BMP_temperature;BMP_pressure;BME280_temperature;BME280_humidity;BME280_pressure;Samples;Min_cycle;Max_cycle;Signal;HPM_P1;HPM_P2
2022/12/01 00:01:12;;;;;;;1.00;0.70;;;;;;;;;;4148253;28;20120;-55
2022/12/01 00:03:14;;;;;;;0.60;0.60;;;;;;;;;;4131356;28;20054;-56
2022/12/01 00:05:15;;;;;;;1.80;0.60;;;;;;;;;;4141259;28;20062;-49
2022/12/01 00:07:17;;;;;;;0.70;0.60;;;;;;;;;;4137096;28;20141;-56
2022/12/01 00:11:38;;;;;;;0.68;0.60;;;;;;;;;;4116962;28;20067;-51
2022/12/01 00:13:39;;;;;;;1.15;1.02;;;;;;;;;;4112643;28;20510;-56
2022/12/01 00:15:40;;;;;;;0.93;0.70;;;;;;;;;;4130355;28;20058;-50
2022/12/01 00:17:44;;;;;;;0.85;0.73;;;;;;;;;;4130378;28;20050;-53
2022/12/01 00:19:45;;;;;;;5.32;0.80;;;;;;;;;;4116811;28;20062;-52
2022/12/01 00:21:46;;;;;;;0.95;0.47;;;;;;;;;;4140129;28;20070;-53
2022/12/01 00:23:50;;;;;;;0.95;0.70;;;;;;;;;;4122225;28;20113;-53
2022/12/01 00:25:51;;;;;;;0.52;0.40;;;;;;;;;;4118522;28;20462;-52
2022/12/01 00:27:52;;;;;;;0.90;0.60;;;;;;;;;;4126743;28;20544;-53
2022/12/01 00:29:54;;;;;;;0.82;0.75;;;;;;;;;;4132844;28;20552;-54
2022/12/01 00:31:55;;;;;;;0.60;0.60;;;;;;;;;;4137656;28;20065;-51
2022/12/01 00:33:56;;;;;;;0.63;0.50;;;;;;;;;;4124144;28;20058;-53
2022/12/01 00:35:58;;;;;;;1.02;0.80;;;;;;;;;;4115965;28;20484;-49
2022/12/01 00:37:59;;;;;;;0.75;0.60;;;;;;;;;;4142487;28;20055;-52
2022/12/01 00:40:02;;;;;;;0.70;0.57;;;;;;;;;;4130149;28;20057;-52
2022/12/01 00:42:04;;;;;;;0.77;0.70;;;;;;;;;;4129744;28;20227;-53
2022/12/01 00:44:05;;;;;;;0.65;0.60;;;;;;;;;;4117494;28;20463;-53
2022/12/01 00:46:07;;;;;;;0.95;0.65;;;;;;;;;;4116003;28;20112;-55
2022/12/01 00:48:08;;;;;;;0.68;0.50;;;;;;;;;;4129835;28;20046;-52
2022/12/01 00:50:10;;;;;;;0.60;0.60;;;;;;;;;;4120740;28;20059;-52
2022/12/01 00:52:13;;;;;;;0.75;0.50;;;;;;;;;;4124787;28;20121;-54
2022/12/01 00:54:14;;;;;;;0.70;0.60;;;;;;;;;;4116248;28;20093;-54
2022/12/01 00:56:16;;;;;;;0.70;0.70;;;;;;;;;;4112169;28;20059;-54
2022/12/01 00:58:17;;;;;;;1.02;0.70;;;;;;;;;;4121948;28;20129;-53
2022/12/01 01:00:19;;;;;;;0.75;0.75;;;;;;;;;;4106969;28;20062;-53
2022/12/01 01:02:20;;;;;;;0.80;0.60;;;;;;;;;;4128706;28;20125;-52
2022/12/01 01:04:21;;;;;;;1.02;0.80;;;;;;;;;;4129568;28;20108;-52
2022/12/01 01:06:22;;;;;;;1.17;0.77;;;;;;;;;;4129046;28;20054;-55
2022/12/01 01:08:24;;;;;;;1.15;0.70;;;;;;;;;;4112160;28;20055;-56
2022/12/01 01:10:25;;;;;;;0.70;0.70;;;;;;;;;;4129511;28;20058;-55
2022/12/01 01:12:27;;;;;;;0.85;0.60;;;;;;;;;;4115354;28;20124;-55
2022/12/01 01:14:28;;;;;;;0.80;0.60;;;;;;;;;;4123494;28;20058;-52
2022/12/01 01:16:30;;;;;;;0.88;0.60;;;;;;;;;;4122387;28;20058;-52
2022/12/01 01:18:32;;;;;;;0.80;0.60;;;;;;;;;;4111871;28;20054;-52
2022/12/01 01:20:33;;;;;;;0.60;0.60;;;;;;;;;;4128716;28;20109;-56
2022/12/01 01:22:35;;;;;;;0.75;0.60;;;;;;;;;;4111539;28;20055;-55
2022/12/01 01:24:36;;;;;;;0.82;0.68;;;;;;;;;;4128950;28;20081;-53
2022/12/01 01:26:37;;;;;;;0.65;0.60;;;;;;;;;;4117796;28;20058;-53
2022/12/01 01:28:40;;;;;;;0.60;0.50;;;;;;;;;;4122950;28;20497;-52
2022/12/01 01:30:41;;;;;;;0.63;0.50;;;;;;;;;;4129152;28;20118;-56
2022/12/01 01:32:43;;;;;;;0.70;0.70;;;;;;;;;;4129087;28;20486;-52
2022/12/01 01:34:44;;;;;;;1.10;0.80;;;;;;;;;;4128978;28;20132;-52
2022/12/01 01:36:45;;;;;;;0.73;0.60;;;;;;;;;;4114930;28;20054;-52
2022/12/01 01:38:47;;;;;;;0.70;0.70;;;;;;;;;;4124445;28;20066;-52
2022/12/01 01:40:48;;;;;;;0.90;0.50;;;;;;;;;;4095818;28;20055;-53
2022/12/01 01:42:49;;;;;;;0.63;0.63;;;;;;;;;;4122276;28;20066;-52
2022/12/01 01:44:55;;;;;;;0.90;0.70;;;;;;;;;;4128762;28;20501;-50
2022/12/01 01:46:56;;;;;;;0.80;0.80;;;;;;;;;;4127403;28;20093;-53
2022/12/01 01:49:09;;;;;;;0.88;0.75;;;;;;;;;;4118611;28;20067;-54
2022/12/01 01:51:12;;;;;;;0.52;0.52;;;;;;;;;;4116379;28;20062;-54
2022/12/01 01:53:13;;;;;;;0.52;0.50;;;;;;;;;;4095413;28;20055;-54
2022/12/01 01:55:15;;;;;;;0.52;0.52;;;;;;;;;;4116401;28;20186;-52
2022/12/01 01:57:27;;;;;;;1.02;0.52;;;;;;;;;;4111463;28;20055;-53
2022/12/01 01:59:52;;;;;;;0.77;0.60;;;;;;;;;;4128803;28;20502;-53
2022/12/01 02:02:02;;;;;;;0.73;0.65;;;;;;;;;;4116362;28;20062;-55
2022/12/01 02:04:04;;;;;;;0.60;0.60;;;;;;;;;;4119975;28;20055;-52
2022/12/01 02:06:06;;;;;;;0.70;0.60;;;;;;;;;;4123893;28;20062;-52
2022/12/01 02:08:11;;;;;;;0.75;0.60;;;;;;;;;;4115092;28;20063;-50
2022/12/01 02:10:13;;;;;;;0.68;0.68;;;;;;;;;;4128491;28;20536;-54
2022/12/01 02:12:33;;;;;;;0.63;0.60;;;;;;;;;;4136746;28;20132;-53
2022/12/01 02:14:55;;;;;;;0.90;0.77;;;;;;;;;;4145873;28;20108;-52
2022/12/01 02:17:08;;;;;;;0.73;0.50;;;;;;;;;;4144551;28;20084;-50
2022/12/01 02:19:52;;;;;;;1.27;0.70;;;;;;;;;;4111169;28;20530;-54
2022/12/01 02:22:23;;;;;;;1.77;0.57;;;;;;;;;;4135163;28;20100;-53
2022/12/01 02:24:24;;;;;;;0.98;0.80;;;;;;;;;;4122390;28;20105;-50
2022/12/01 02:26:38;;;;;;;0.50;0.50;;;;;;;;;;4144367;28;20092;-52
2022/12/01 02:28:51;;;;;;;0.77;0.77;;;;;;;;;;4136393;28;20061;-54
2022/12/01 02:30:56;;;;;;;0.95;0.70;;;;;;;;;;4141110;28;20421;-54
2022/12/01 02:33:00;;;;;;;0.52;0.52;;;;;;;;;;4110945;28;20129;-50
2022/12/01 02:35:19;;;;;;;0.80;0.60;;;;;;;;;;4144365;28;20053;-56
2022/12/01 02:37:32;;;;;;;0.82;0.60;;;;;;;;;;4142438;28;20129;-53
2022/12/01 02:39:49;;;;;;;0.68;0.60;;;;;;;;;;4126889;28;20054;-53
2022/12/01 02:41:55;;;;;;;0.57;0.57;;;;;;;;;;4144370;28;20061;-52
2022/12/01 02:44:03;;;;;;;0.95;0.52;;;;;;;;;;4114812;28;20058;-53
2022/12/01 02:46:11;;;;;;;0.77;0.63;;;;;;;;;;4131345;28;20396;-55
2022/12/01 02:48:17;;;;;;;0.70;0.68;;;;;;;;;;4120225;28;20055;-52
2022/12/01 02:50:21;;;;;;;1.25;0.80;;;;;;;;;;4138940;28;20054;-52
2022/12/01 02:52:23;;;;;;;0.93;0.70;;;;;;;;;;4129167;28;20054;-55
2022/12/01 02:54:24;;;;;;;0.80;0.70;;;;;;;;;;4126926;28;20101;-56
2022/12/01 02:56:26;;;;;;;0.98;0.70;;;;;;;;;;4144508;28;20058;-52
2022/12/01 02:58:27;;;;;;;0.77;0.63;;;;;;;;;;4128812;28;20612;-55
2022/12/01 03:00:29;;;;;;;0.80;0.68;;;;;;;;;;4140789;28;20061;-48
2022/12/01 03:02:41;;;;;;;0.52;0.52;;;;;;;;;;4131398;28;20100;-55
2022/12/01 03:05:07;;;;;;;1.10;0.60;;;;;;;;;;4143955;28;20512;-56
2022/12/01 03:07:32;;;;;;;0.95;0.70;;;;;;;;;;4132056;28;20104;-53
2022/12/01 03:10:07;;;;;;;1.00;0.80;;;;;;;;;;4144496;28;20057;-56
2022/12/01 03:12:24;;;;;;;0.60;0.60;;;;;;;;;;4144335;28;20069;-54
2022/12/01 03:14:34;;;;;;;1.15;0.75;;;;;;;;;;4134693;28;20054;-56
2022/12/01 03:16:48;;;;;;;0.60;0.40;;;;;;;;;;4126494;28;20054;-52
2022/12/01 03:18:55;;;;;;;0.85;0.70;;;;;;;;;;4141663;28;20515;-52
2022/12/01 03:21:21;;;;;;;0.93;0.60;;;;;;;;;;4148735;28;20075;-54
2022/12/01 03:23:25;;;;;;;0.70;0.50;;;;;;;;;;4144084;28;20065;-50
2022/12/01 03:25:27;;;;;;;0.70;0.70;;;;;;;;;;4143360;28;20066;-54
2022/12/01 03:27:32;;;;;;;0.80;0.80;;;;;;;;;;4126518;28;20054;-51
2022/12/01 03:29:38;;;;;;;0.55;0.55;;;;;;;;;;4126752;28;20582;-55
2022/12/01 03:31:43;;;;;;;0.75;0.70;;;;;;;;;;4113955;28;20066;-55
2022/12/01 03:33:51;;;;;;;0.70;0.60;;;;;;;;;;4114330;28;20113;-56
2022/12/01 03:36:04;;;;;;;0.60;0.55;;;;;;;;;;4127542;28;20050;-54
2022/12/01 03:38:12;;;;;;;0.45;0.45;;;;;;;;;;4146935;28;20054;-56
2022/12/01 03:40:17;;;;;;;0.85;0.68;;;;;;;;;;4146953;28;20057;-52
2022/12/01 03:42:25;;;;;;;0.88;0.70;;;;;;;;;;4129870;28;20054;-56
2022/12/01 03:44:33;;;;;;;0.80;0.60;;;;;;;;;;4129721;28;20069;-55
2022/12/01 03:46:44;;;;;;;1.38;0.55;;;;;;;;;;4146372;28;20054;-54
2022/12/01 03:48:45;;;;;;;0.65;0.55;;;;;;;;;;4129210;28;20474;-53
2022/12/01 03:50:59;;;;;;;0.60;0.60;;;;;;;;;;4146367;28;20500;-54
2022/12/01 03:53:18;;;;;;;0.85;0.65;;;;;;;;;;4129774;28;20054;-48
2022/12/01 03:55:23;;;;;;;0.82;0.70;;;;;;;;;;4129978;28;20097;-55
2022/12/01 03:57:30;;;;;;;1.00;0.90;;;;;;;;;;4146616;28;20107;-55
2022/12/01 03:59:34;;;;;;;0.80;0.70;;;;;;;;;;4129603;28;20450;-53
2022/12/01 04:01:36;;;;;;;1.02;0.73;;;;;;;;;;4132900;28;20061;-53
2022/12/01 04:03:37;;;;;;;1.30;0.75;;;;;;;;;;4129427;28;20188;-53
2022/12/01 04:05:39;;;;;;;0.70;0.60;;;;;;;;;;4129165;28;20058;-54
2022/12/01 04:07:40;;;;;;;0.80;0.70;;;;;;;;;;4149010;28;20085;-55
2022/12/01 04:09:41;;;;;;;0.68;0.60;;;;;;;;;;4143790;28;20061;-53
2022/12/01 04:14:02;;;;;;;0.47;0.47;;;;;;;;;;4140662;28;20046;-52
2022/12/01 04:16:04;;;;;;;0.63;0.50;;;;;;;;;;4147683;28;20054;-56
2022/12/01 04:18:05;;;;;;;0.60;0.60;;;;;;;;;;4146703;28;20054;-54
2022/12/01 04:20:07;;;;;;;0.80;0.73;;;;;;;;;;4146716;28;20425;-54
2022/12/01 04:22:09;;;;;;;0.68;0.60;;;;;;;;;;4128442;28;20385;-56
2022/12/01 04:24:11;;;;;;;0.77;0.57;;;;;;;;;;4133889;28;20101;-53
2022/12/01 04:26:12;;;;;;;0.80;0.75;;;;;;;;;;4142980;28;20070;-56
2022/12/01 04:28:14;;;;;;;0.80;0.68;;;;;;;;;;4150866;28;20547;-56
2022/12/01 04:30:15;;;;;;;0.88;0.60;;;;;;;;;;4144955;28;20347;-57
2022/12/01 04:32:17;;;;;;;0.90;0.75;;;;;;;;;;4146011;28;20459;-52
2022/12/01 04:34:18;;;;;;;0.82;0.60;;;;;;;;;;4147523;28;20058;-56
2022/12/01 04:36:19;;;;;;;0.85;0.60;;;;;;;;;;4146043;28;20058;-56
2022/12/01 04:38:21;;;;;;;1.17;0.70;;;;;;;;;;4145723;28;20101;-56
2022/12/01 04:40:22;;;;;;;1.25;0.73;;;;;;;;;;4146385;28;20062;-55
2022/12/01 04:42:24;;;;;;;0.77;0.55;;;;;;;;;;4145573;28;20414;-55
2022/12/01 04:44:25;;;;;;;1.00;0.80;;;;;;;;;;4145756;28;20057;-50
2022/12/01 04:46:26;;;;;;;0.60;0.50;;;;;;;;;;4145780;28;20509;-53
2022/12/01 04:48:27;;;;;;;0.60;0.60;;;;;;;;;;4144842;28;20119;-54
2022/12/01 04:50:29;;;;;;;0.93;0.75;;;;;;;;;;4132745;28;20058;-53
2022/12/01 04:52:31;;;;;;;0.73;0.70;;;;;;;;;;4132495;28;20057;-55
2022/12/01 04:54:32;;;;;;;0.88;0.68;;;;;;;;;;4146042;28;20054;-55
2022/12/01 04:56:34;;;;;;;0.75;0.63;;;;;;;;;;4128519;28;20065;-54
2022/12/01 04:58:36;;;;;;;0.80;0.70;;;;;;;;;;4132290;28;20050;-50
2022/12/01 05:00:38;;;;;;;0.98;0.80;;;;;;;;;;4144614;28;20423;-51
2022/12/01 05:02:42;;;;;;;1.02;0.70;;;;;;;;;;4145946;28;20058;-56
2022/12/01 05:04:46;;;;;;;1.25;0.77;;;;;;;;;;4145932;28;20113;-54
2022/12/01 05:06:48;;;;;;;0.95;0.73;;;;;;;;;;4133185;28;20054;-52
2022/12/01 05:08:50;;;;;;;0.98;0.80;;;;;;;;;;4142396;28;20049;-56
2022/12/01 05:10:54;;;;;;;0.73;0.68;;;;;;;;;;4134361;28;20131;-56
2022/12/01 05:12:57;;;;;;;0.63;0.60;;;;;;;;;;4127923;28;20168;-56
2022/12/01 05:14:58;;;;;;;0.90;0.70;;;;;;;;;;4148900;28;20192;-55
2022/12/01 05:17:01;;;;;;;0.70;0.50;;;;;;;;;;4142354;28;20469;-54
2022/12/01 05:21:24;;;;;;;1.13;0.70;;;;;;;;;;4134229;28;20116;-53
2022/12/01 05:23:27;;;;;;;0.70;0.70;;;;;;;;;;4142727;28;20092;-56
2022/12/01 05:25:28;;;;;;;0.80;0.60;;;;;;;;;;4141193;28;20061;-55
2022/12/01 05:27:30;;;;;;;0.40;0.40;;;;;;;;;;4150792;28;20060;-53
2022/12/01 05:29:31;;;;;;;0.63;0.60;;;;;;;;;;4145448;28;20323;-60
2022/12/01 05:31:33;;;;;;;0.65;0.65;;;;;;;;;;4131972;28;20106;-56
2022/12/01 05:33:35;;;;;;;1.08;0.65;;;;;;;;;;4130846;28;20068;-56
2022/12/01 05:35:36;;;;;;;0.57;0.57;;;;;;;;;;4131705;28;21038;-53
2022/12/01 05:37:37;;;;;;;0.77;0.63;;;;;;;;;;4144550;28;20290;-56
2022/12/01 05:39:39;;;;;;;0.90;0.88;;;;;;;;;;4133155;28;20099;-53
2022/12/01 05:41:40;;;;;;;0.70;0.70;;;;;;;;;;4130690;28;20061;-53
2022/12/01 05:43:41;;;;;;;1.42;0.80;;;;;;;;;;4145156;28;20607;-56
2022/12/01 05:45:43;;;;;;;1.05;0.70;;;;;;;;;;4145393;28;20054;-51
2022/12/01 05:47:44;;;;;;;0.73;0.60;;;;;;;;;;4133846;28;20198;-55
2022/12/01 05:49:45;;;;;;;2.20;0.60;;;;;;;;;;4141640;28;20461;-54
2022/12/01 05:51:47;;;;;;;0.95;0.73;;;;;;;;;;4132518;28;20061;-55
2022/12/01 05:53:48;;;;;;;0.80;0.65;;;;;;;;;;4127681;28;20058;-52
2022/12/01 05:55:52;;;;;;;0.80;0.60;;;;;;;;;;4144690;28;20487;-49
2022/12/01 05:57:53;;;;;;;0.80;0.60;;;;;;;;;;4144639;28;20054;-51
2022/12/01 05:59:55;;;;;;;0.70;0.60;;;;;;;;;;4141471;28;20069;-52
2022/12/01 06:01:56;;;;;;;0.45;0.45;;;;;;;;;;4133480;28;20575;-51
2022/12/01 06:03:57;;;;;;;0.70;0.60;;;;;;;;;;4144869;28;20053;-49
2022/12/01 06:05:58;;;;;;;0.73;0.60;;;;;;;;;;4144889;28;20062;-53
2022/12/01 06:07:59;;;;;;;1.38;0.57;;;;;;;;;;4144496;28;20096;-52
2022/12/01 06:10:01;;;;;;;0.70;0.70;;;;;;;;;;4141427;28;20062;-54
2022/12/01 06:12:02;;;;;;;0.93;0.60;;;;;;;;;;4128392;28;20478;-55
2022/12/01 06:14:04;;;;;;;0.57;0.50;;;;;;;;;;4126077;28;20057;-52
2022/12/01 06:16:05;;;;;;;0.60;0.60;;;;;;;;;;4112689;28;20403;-55
2022/12/01 06:18:07;;;;;;;0.57;0.57;;;;;;;;;;4123480;28;20116;-47
2022/12/01 06:20:09;;;;;;;0.52;0.52;;;;;;;;;;4122347;28;20065;-49
2022/12/01 06:22:10;;;;;;;0.40;0.40;;;;;;;;;;4124149;28;20057;-54
2022/12/01 06:24:11;;;;;;;0.50;0.50;;;;;;;;;;4126431;28;20062;-51
2022/12/01 06:26:13;;;;;;;0.60;0.60;;;;;;;;;;4105172;28;20624;-54
2022/12/01 06:28:15;;;;;;;1.02;0.57;;;;;;;;;;4120566;28;20054;-54
2022/12/01 06:30:16;;;;;;;1.00;0.60;;;;;;;;;;4121621;28;20148;-52
2022/12/01 06:32:17;;;;;;;0.45;0.45;;;;;;;;;;4134278;28;20128;-54
2022/12/01 06:34:19;;;;;;;0.88;0.50;;;;;;;;;;4124719;28;20097;-53
2022/12/01 06:36:20;;;;;;;0.55;0.50;;;;;;;;;;4114795;28;20067;-51
2022/12/01 06:38:21;;;;;;;0.65;0.57;;;;;;;;;;4116759;28;20549;-55
2022/12/01 06:40:22;;;;;;;0.95;0.50;;;;;;;;;;4118733;28;20050;-54
2022/12/01 06:42:23;;;;;;;3.05;0.60;;;;;;;;;;4115468;28;20461;-54
2022/12/01 06:44:25;;;;;;;0.52;0.40;;;;;;;;;;4125118;28;20077;-53
2022/12/01 06:46:27;;;;;;;0.43;0.40;;;;;;;;;;4122254;28;20058;-55
2022/12/01 06:48:29;;;;;;;6.20;0.50;;;;;;;;;;4124902;28;20531;-46
2022/12/01 06:50:30;;;;;;;0.70;0.40;;;;;;;;;;4125446;28;20097;-54
2022/12/01 06:52:31;;;;;;;0.50;0.40;;;;;;;;;;4129017;28;20050;-52
2022/12/01 06:54:33;;;;;;;1.20;0.70;;;;;;;;;;4125928;28;20490;-56
2022/12/01 06:56:34;;;;;;;0.93;0.50;;;;;;;;;;4125982;28;20058;-53
2022/12/01 06:58:35;;;;;;;1.02;0.40;;;;;;;;;;4107138;28;20258;-55
2022/12/01 07:00:37;;;;;;;0.77;0.40;;;;;;;;;;4116871;28;20124;-54
2022/12/01 07:02:38;;;;;;;0.50;0.30;;;;;;;;;;4120885;28;20058;-54
2022/12/01 07:04:40;;;;;;;0.45;0.40;;;;;;;;;;4114851;28;20050;-49
2022/12/01 07:06:41;;;;;;;0.47;0.40;;;;;;;;;;4114592;28;20136;-56
2022/12/01 07:08:43;;;;;;;1.33;0.70;;;;;;;;;;4103441;28;20051;-56
2022/12/01 07:10:44;;;;;;;0.75;0.50;;;;;;;;;;4131113;28;20108;-56
2022/12/01 07:12:46;;;;;;;0.68;0.52;;;;;;;;;;4135982;28;20069;-52
2022/12/01 07:14:47;;;;;;;0.60;0.60;;;;;;;;;;4138236;28;20050;-53
2022/12/01 07:16:49;;;;;;;0.40;0.30;;;;;;;;;;4125647;28;20058;-56
2022/12/01 07:18:51;;;;;;;1.30;0.52;;;;;;;;;;4140932;28;20129;-53
2022/12/01 07:20:52;;;;;;;0.40;0.40;;;;;;;;;;4137536;28;20468;-54
2022/12/01 07:22:54;;;;;;;0.80;0.47;;;;;;;;;;4141001;28;20517;-50
2022/12/01 07:24:55;;;;;;;0.30;0.30;;;;;;;;;;4125274;28;20051;-54
2022/12/01 07:26:56;;;;;;;0.40;0.40;;;;;;;;;;4120666;28;20054;-52
2022/12/01 07:28:57;;;;;;;1.00;0.50;;;;;;;;;;4155001;28;20562;-52
2022/12/01 07:31:24;;;;;;;0.60;0.50;;;;;;;;;;4131719;28;20054;-53
2022/12/01 07:33:26;;;;;;;0.55;0.40;;;;;;;;;;4120593;28;20077;-47
2022/12/01 07:35:27;;;;;;;0.68;0.68;;;;;;;;;;4130072;28;21476;-51
2022/12/01 07:37:28;;;;;;;0.40;0.40;;;;;;;;;;4132909;28;20054;-55
2022/12/01 07:39:29;;;;;;;0.43;0.38;;;;;;;;;;4135476;28;20560;-51
2022/12/01 07:41:30;;;;;;;0.50;0.50;;;;;;;;;;4132730;28;20117;-55
2022/12/01 07:43:32;;;;;;;0.95;0.50;;;;;;;;;;4149931;28;20053;-55
2022/12/01 07:45:34;;;;;;;0.75;0.45;;;;;;;;;;4131491;28;20584;-52
2022/12/01 07:47:35;;;;;;;0.50;0.50;;;;;;;;;;4121382;28;20062;-49
2022/12/01 07:49:37;;;;;;;0.50;0.40;;;;;;;;;;4131694;28;20116;-52
2022/12/01 07:51:38;;;;;;;0.55;0.45;;;;;;;;;;4133561;28;20046;-54
2022/12/01 07:53:40;;;;;;;3.30;0.45;;;;;;;;;;4099423;28;20101;-48
2022/12/01 07:55:47;;;;;;;1.48;0.50;;;;;;;;;;4113565;28;20473;-56
2022/12/01 07:57:48;;;;;;;0.77;0.50;;;;;;;;;;4122498;28;20145;-52
2022/12/01 07:59:51;;;;;;;0.85;0.50;;;;;;;;;;4117850;28;20062;-52
2022/12/01 08:01:53;;;;;;;0.40;0.40;;;;;;;;;;4129996;28;20061;-50
2022/12/01 08:03:56;;;;;;;0.80;0.50;;;;;;;;;;4113816;28;20137;-52
2022/12/01 08:05:59;;;;;;;1.45;0.68;;;;;;;;;;4146288;28;20057;-56
2022/12/01 08:08:00;;;;;;;1.20;0.70;;;;;;;;;;4135544;28;20352;-57
2022/12/01 08:10:02;;;;;;;1.02;0.45;;;;;;;;;;4134283;28;20151;-58
2022/12/01 08:12:03;;;;;;;1.40;0.60;;;;;;;;;;4132818;28;20061;-57
2022/12/01 08:14:05;;;;;;;0.77;0.55;;;;;;;;;;4135814;28;20453;-48
2022/12/01 08:16:08;;;;;;;0.68;0.55;;;;;;;;;;4102392;28;20054;-55
2022/12/01 08:18:10;;;;;;;0.45;0.35;;;;;;;;;;4136457;28;20103;-59
2022/12/01 08:20:11;;;;;;;0.52;0.38;;;;;;;;;;4123118;28;20200;-51
2022/12/01 08:22:13;;;;;;;1.80;0.65;;;;;;;;;;4119264;28;21383;-50
2022/12/01 08:24:14;;;;;;;1.52;0.55;;;;;;;;;;4116980;28;20061;-52
2022/12/01 08:26:18;;;;;;;2.05;0.50;;;;;;;;;;4116406;28;20520;-52
2022/12/01 08:28:19;;;;;;;1.38;0.70;;;;;;;;;;4123107;28;20054;-53
2022/12/01 08:30:21;;;;;;;1.33;0.40;;;;;;;;;;4118685;28;20058;-49
2022/12/01 08:32:23;;;;;;;0.82;0.40;;;;;;;;;;4127479;28;20068;-54
2022/12/01 08:34:24;;;;;;;1.70;0.73;;;;;;;;;;4127908;28;20505;-55
2022/12/01 08:36:26;;;;;;;0.90;0.43;;;;;;;;;;4132194;28;21128;-58
2022/12/01 08:38:27;;;;;;;0.93;0.50;;;;;;;;;;4128936;28;20062;-55
2022/12/01 08:40:28;;;;;;;0.60;0.55;;;;;;;;;;4110268;28;20062;-54
2022/12/01 08:42:29;;;;;;;0.95;0.55;;;;;;;;;;4127820;28;20058;-54
2022/12/01 08:44:31;;;;;;;1.63;0.70;;;;;;;;;;4128622;28;20473;-52
2022/12/01 08:46:34;;;;;;;0.65;0.40;;;;;;;;;;4128981;28;20113;-48
2022/12/01 08:48:36;;;;;;;0.77;0.60;;;;;;;;;;4120608;28;20050;-52
2022/12/01 08:50:37;;;;;;;1.05;0.50;;;;;;;;;;4107557;28;20145;-57
2022/12/01 08:52:38;;;;;;;0.60;0.50;;;;;;;;;;4126287;28;20113;-50
2022/12/01 08:54:40;;;;;;;0.60;0.45;;;;;;;;;;4123534;28;20050;-50
2022/12/01 08:56:43;;;;;;;0.95;0.30;;;;;;;;;;4125566;28;20489;-50
2022/12/01 08:58:44;;;;;;;1.67;0.60;;;;;;;;;;4111722;28;20054;-53
2022/12/01 09:00:45;;;;;;;2.15;0.70;;;;;;;;;;4116801;28;20065;-48
2022/12/01 09:02:46;;;;;;;0.45;0.38;;;;;;;;;;4117750;28;20475;-54
2022/12/01 09:04:51;;;;;;;1.08;0.40;;;;;;;;;;4107873;28;20097;-53
2022/12/01 09:06:54;;;;;;;1.35;0.55;;;;;;;;;;4123166;28;20058;-49
2022/12/01 09:08:58;;;;;;;0.45;0.43;;;;;;;;;;4126726;28;20430;-49
2022/12/01 09:11:02;;;;;;;1.73;0.57;;;;;;;;;;4132078;28;20057;-48
2022/12/01 09:13:04;;;;;;;0.70;0.40;;;;;;;;;;4130636;28;20588;-55
2022/12/01 09:15:05;;;;;;;0.77;0.40;;;;;;;;;;4117118;28;20058;-57
2022/12/01 09:17:07;;;;;;;0.85;0.50;;;;;;;;;;4124204;28;20176;-46
2022/12/01 09:19:09;;;;;;;0.70;0.45;;;;;;;;;;4121251;28;20572;-54
2022/12/01 09:21:12;;;;;;;0.65;0.50;;;;;;;;;;4106084;28;20058;-57
2022/12/01 09:23:14;;;;;;;0.93;0.50;;;;;;;;;;4125476;28;20053;-53
2022/12/01 09:25:15;;;;;;;1.02;0.57;;;;;;;;;;4138371;28;20464;-50
2022/12/01 09:27:17;;;;;;;1.45;0.50;;;;;;;;;;4113622;28;20058;-51
2022/12/01 09:29:18;;;;;;;0.80;0.55;;;;;;;;;;4090308;28;20475;-50
2022/12/01 09:31:22;;;;;;;0.77;0.70;;;;;;;;;;4120799;28;20121;-53
2022/12/01 09:33:23;;;;;;;1.13;0.50;;;;;;;;;;4101909;28;20124;-54
2022/12/01 09:35:25;;;;;;;0.60;0.50;;;;;;;;;;4115885;28;20690;-48
2022/12/01 09:37:26;;;;;;;0.50;0.40;;;;;;;;;;4126458;28;20203;-56
2022/12/01 09:39:28;;;;;;;1.67;0.73;;;;;;;;;;4124168;28;20069;-54
2022/12/01 09:41:41;;;;;;;0.60;0.50;;;;;;;;;;4127573;28;20061;-50
2022/12/01 09:43:46;;;;;;;0.60;0.60;;;;;;;;;;4121053;28;21211;-53
2022/12/01 09:45:53;;;;;;;0.73;0.50;;;;;;;;;;4126163;28;20132;-53
2022/12/01 09:47:56;;;;;;;0.50;0.45;;;;;;;;;;4127123;28;20398;-52
2022/12/01 09:50:14;;;;;;;0.57;0.40;;;;;;;;;;4111444;28;20062;-52
2022/12/01 09:52:18;;;;;;;0.50;0.50;;;;;;;;;;4102456;28;20062;-49
2022/12/01 09:54:19;;;;;;;0.85;0.60;;;;;;;;;;4118348;28;20141;-49
2022/12/01 09:56:28;;;;;;;1.30;0.70;;;;;;;;;;4122936;28;20133;-52
2022/12/01 09:58:29;;;;;;;0.70;0.60;;;;;;;;;;4131693;28;20061;-52
2022/12/01 10:00:36;;;;;;;1.10;0.65;;;;;;;;;;4121914;28;20112;-50
2022/12/01 10:03:05;;;;;;;0.77;0.75;;;;;;;;;;4110021;28;20745;-56
2022/12/01 10:05:13;;;;;;;0.65;0.60;;;;;;;;;;4103292;28;20050;-50
2022/12/01 10:07:29;;;;;;;0.73;0.55;;;;;;;;;;4107502;28;20058;-48
2022/12/01 10:09:31;;;;;;;0.95;0.80;;;;;;;;;;4137149;28;20092;-56
2022/12/01 10:11:39;;;;;;;1.30;0.90;;;;;;;;;;4126102;28;20565;-56
2022/12/01 10:13:41;;;;;;;1.48;0.90;;;;;;;;;;4109590;28;20399;-51
2022/12/01 10:15:47;;;;;;;0.90;0.73;;;;;;;;;;4114246;28;20062;-56
2022/12/01 10:18:17;;;;;;;1.08;0.82;;;;;;;;;;4127151;28;20735;-52
2022/12/01 10:20:41;;;;;;;0.95;0.80;;;;;;;;;;4128198;28;20524;-56
2022/12/01 10:22:48;;;;;;;0.73;0.65;;;;;;;;;;4093717;28;20127;-50
2022/12/01 10:24:57;;;;;;;1.60;0.90;;;;;;;;;;4126293;28;20461;-53
2022/12/01 10:27:08;;;;;;;1.05;0.80;;;;;;;;;;4124530;28;20144;-51
2022/12/01 10:29:11;;;;;;;1.25;0.80;;;;;;;;;;4119928;28;20738;-53
2022/12/01 10:31:20;;;;;;;1.70;1.05;;;;;;;;;;4120190;28;20061;-54
2022/12/01 10:33:26;;;;;;;1.02;0.80;;;;;;;;;;4120577;28;20183;-57
2022/12/01 10:35:30;;;;;;;1.55;0.95;;;;;;;;;;4122518;28;20552;-56
2022/12/01 10:37:32;;;;;;;1.05;0.90;;;;;;;;;;4123705;28;20504;-49
2022/12/01 10:39:36;;;;;;;1.10;1.00;;;;;;;;;;4124347;28;20112;-55
2022/12/01 10:41:38;;;;;;;0.98;0.80;;;;;;;;;;4123085;28;20065;-56
2022/12/01 10:43:40;;;;;;;3.55;1.02;;;;;;;;;;4114508;28;20061;-53
2022/12/01 10:45:43;;;;;;;3.38;1.00;;;;;;;;;;4140371;28;20489;-50
2022/12/01 10:48:07;;;;;;;1.83;0.90;;;;;;;;;;4135626;28;21341;-57
2022/12/01 10:50:25;;;;;;;1.42;0.90;;;;;;;;;;4125080;28;20443;-51
2022/12/01 10:52:39;;;;;;;1.27;0.93;;;;;;;;;;4124242;28;20497;-56
2022/12/01 10:54:41;;;;;;;2.92;0.80;;;;;;;;;;4126339;28;20062;-57
2022/12/01 10:56:46;;;;;;;3.35;0.90;;;;;;;;;;4121510;28;20053;-52
2022/12/01 10:58:51;;;;;;;1.05;0.80;;;;;;;;;;4132812;28;20049;-52
2022/12/01 11:01:00;;;;;;;0.90;0.73;;;;;;;;;;4118322;28;20080;-54
2022/12/01 11:03:02;;;;;;;0.90;0.70;;;;;;;;;;4135194;28;20065;-54
2022/12/01 11:05:06;;;;;;;1.40;0.88;;;;;;;;;;4122525;28;20120;-55
2022/12/01 11:07:14;;;;;;;2.40;0.68;;;;;;;;;;4114766;28;20054;-49
2022/12/01 11:09:20;;;;;;;1.27;0.90;;;;;;;;;;4126495;28;20054;-53
2022/12/01 11:11:30;;;;;;;0.90;0.88;;;;;;;;;;4127911;28;20583;-56
2022/12/01 11:13:34;;;;;;;1.05;0.70;;;;;;;;;;4106918;28;20054;-53
2022/12/01 11:15:40;;;;;;;1.35;0.80;;;;;;;;;;4111416;28;20273;-54
2022/12/01 11:17:42;;;;;;;1.40;0.80;;;;;;;;;;4105003;28;20062;-56
2022/12/01 11:19:43;;;;;;;1.23;0.98;;;;;;;;;;4106879;28;20058;-54
2022/12/01 11:21:49;;;;;;;0.95;0.85;;;;;;;;;;4122334;28;20499;-52
2022/12/01 11:23:53;;;;;;;0.80;0.73;;;;;;;;;;4122991;28;20364;-53
2022/12/01 11:26:09;;;;;;;0.52;0.52;;;;;;;;;;4124078;28;20831;-52
2022/12/01 11:28:18;;;;;;;0.98;0.90;;;;;;;;;;4124044;28;20112;-53
2022/12/01 11:30:23;;;;;;;0.93;0.63;;;;;;;;;;4123736;28;20057;-52
2022/12/01 11:32:38;;;;;;;1.75;1.00;;;;;;;;;;4119323;28;20511;-53
2022/12/01 11:34:39;;;;;;;1.52;0.90;;;;;;;;;;4123857;28;20120;-55
2022/12/01 11:36:46;;;;;;;2.58;0.82;;;;;;;;;;4119148;28;20065;-54
2022/12/01 11:38:48;;;;;;;0.80;0.73;;;;;;;;;;4112718;28;20136;-55
2022/12/01 11:40:54;;;;;;;1.00;0.85;;;;;;;;;;4109674;28;20062;-56
2022/12/01 11:42:58;;;;;;;2.28;0.90;;;;;;;;;;4133839;28;20096;-57
2022/12/01 11:45:25;;;;;;;0.82;0.80;;;;;;;;;;4134792;28;20053;-52
2022/12/01 11:47:26;;;;;;;1.27;0.80;;;;;;;;;;4119586;28;20054;-49
2022/12/01 11:49:28;;;;;;;2.08;0.65;;;;;;;;;;4116438;28;20470;-51
2022/12/01 11:51:36;;;;;;;2.13;1.20;;;;;;;;;;4137852;28;20110;-54
2022/12/01 11:53:39;;;;;;;1.33;0.82;;;;;;;;;;4124300;28;20114;-55
2022/12/01 11:55:41;;;;;;;1.10;0.90;;;;;;;;;;4119207;28;20062;-54
2022/12/01 11:57:43;;;;;;;1.55;1.20;;;;;;;;;;4129967;28;20148;-57
2022/12/01 11:59:45;;;;;;;1.60;0.98;;;;;;;;;;4125359;28;20061;-55
2022/12/01 12:02:02;;;;;;;1.15;1.05;;;;;;;;;;4111563;28;20478;-52
2022/12/01 12:04:26;;;;;;;1.95;0.98;;;;;;;;;;4127545;28;20498;-53
2022/12/01 12:06:44;;;;;;;3.65;1.30;;;;;;;;;;4106854;28;20054;-48
2022/12/01 12:09:03;;;;;;;0.75;0.70;;;;;;;;;;4133457;28;21229;-54
2022/12/01 12:11:16;;;;;;;2.50;1.10;;;;;;;;;;4092156;28;20475;-51
2022/12/01 12:13:32;;;;;;;3.20;0.70;;;;;;;;;;4086581;28;20062;-52
2022/12/01 12:16:10;;;;;;;1.73;0.90;;;;;;;;;;4096585;28;21437;-56
2022/12/01 12:18:45;;;;;;;1.42;1.15;;;;;;;;;;4093813;28;20466;-58
2022/12/01 12:21:27;;;;;;;1.63;1.17;;;;;;;;;;4113290;28;20884;-57
2022/12/01 12:24:00;;;;;;;1.20;1.10;;;;;;;;;;4063949;29;20400;-52
2022/12/01 12:26:16;;;;;;;1.50;1.15;;;;;;;;;;4083105;28;20520;-56
2022/12/01 12:28:35;;;;;;;2.38;1.02;;;;;;;;;;4111147;28;20055;-56
2022/12/01 12:30:48;;;;;;;1.38;1.02;;;;;;;;;;4110405;28;20094;-53
2022/12/01 12:33:07;;;;;;;0.82;0.80;;;;;;;;;;4109641;28;20093;-56
2022/12/01 12:35:27;;;;;;;2.67;1.13;;;;;;;;;;4105671;28;20069;-54
2022/12/01 12:37:43;;;;;;;2.85;1.00;;;;;;;;;;4108379;28;20073;-53